Time;durP1;ratioP1;P1;durP2;ratioP2;P2;SDS_P1;SDS_P2;PMS_P1;PMS_P2;Temp;Humidity;BMP_temperature;BMP_pressure;BME280_temperature;BME280_humidity;BME280_pressure;Samples;Min_cycle;Max_cycle;Signal;HPM_P1;HPM_P2
2024/01/25 00:00:23;;;;;;;25.35;5.93;;;8.00;99.90;;;;;;5027921;28;20498;-43
2024/01/25 00:02:50;;;;;;;23.98;6.63;;;8.00;99.90;;;;;;5011012;28;20473;-48
2024/01/25 00:05:17;;;;;;;24.85;5.68;;;8.10;99.90;;;;;;5029828;28;20045;-44
2024/01/25 00:07:48;;;;;;;24.30;5.97;;;8.10;99.90;;;;;;5028908;28;20053;-49
2024/01/25 00:10:17;;;;;;;20.35;5.40;;;8.10;99.90;;;;;;5029394;28;20067;-48
2024/01/25 00:12:44;;;;;;;24.20;5.15;;;8.20;99.90;;;;;;5029601;28;20060;-49
2024/01/25 00:15:13;;;;;;;24.67;5.55;;;8.20;99.90;;;;;;5032757;28;20053;-45
2024/01/25 00:17:41;;;;;;;20.33;5.05;;;8.20;99.90;;;;;;5026677;28;20095;-45
2024/01/25 00:20:10;;;;;;;21.80;5.82;;;8.10;99.90;;;;;;5035161;28;20413;-50
2024/01/25 00:22:38;;;;;;;23.98;5.78;;;8.20;99.90;;;;;;5028613;28;20057;-48
2024/01/25 00:25:06;;;;;;;21.75;5.68;;;8.10;99.90;;;;;;5029503;28;20460;-44
2024/01/25 00:27:33;;;;;;;18.80;5.72;;;8.10;99.90;;;;;;5028883;28;20037;-45
2024/01/25 00:30:01;;;;;;;22.90;5.88;;;8.00;99.90;;;;;;5024829;28;20550;-49
2024/01/25 00:32:28;;;;;;;23.63;5.13;;;8.00;99.90;;;;;;5027920;28;20498;-51
2024/01/25 00:34:56;;;;;;;29.42;6.10;;;8.10;99.90;;;;;;5024194;28;20045;-46
2024/01/25 00:37:24;;;;;;;22.08;5.72;;;8.10;99.90;;;;;;5031370;28;20061;-46
2024/01/25 00:39:51;;;;;;;23.92;6.00;;;8.10;99.90;;;;;;5030848;28;20391;-50
2024/01/25 00:42:22;;;;;;;25.80;6.00;;;8.10;99.90;;;;;;5031961;28;20044;-47
2024/01/25 00:44:49;;;;;;;28.33;6.10;;;8.10;99.90;;;;;;5035908;28;20395;-48
2024/01/25 00:47:17;;;;;;;23.83;5.68;;;8.00;99.90;;;;;;5034469;28;20046;-46
2024/01/25 00:49:44;;;;;;;19.98;5.63;;;8.00;99.90;;;;;;5033281;28;20051;-49
2024/01/25 00:52:11;;;;;;;20.63;5.50;;;8.00;99.90;;;;;;5036424;28;20048;-50
2024/01/25 00:54:38;;;;;;;19.33;5.72;;;8.00;99.90;;;;;;5034910;28;20037;-46
2024/01/25 00:57:06;;;;;;;24.75;6.57;;;8.00;99.90;;;;;;5029564;28;20068;-43
2024/01/25 00:59:33;;;;;;;22.75;5.38;;;8.00;99.90;;;;;;5033581;28;20107;-48
2024/01/25 01:02:03;;;;;;;22.15;5.45;;;8.00;99.90;;;;;;5033723;28;20124;-41
2024/01/25 01:04:34;;;;;;;27.55;5.93;;;8.00;99.90;;;;;;5031687;28;20033;-42
2024/01/25 01:07:15;;;;;;;22.38;5.70;;;8.00;99.90;;;;;;5031695;28;20041;-48
2024/01/25 01:09:42;;;;;;;24.42;5.35;;;8.00;99.90;;;;;;5029879;28;20596;-49
2024/01/25 01:12:09;;;;;;;25.45;5.68;;;8.00;99.90;;;;;;5032598;28;20049;-42
2024/01/25 01:14:36;;;;;;;26.52;5.32;;;8.10;99.90;;;;;;5031959;28;20414;-47
2024/01/25 01:17:03;;;;;;;29.15;5.40;;;8.10;99.90;;;;;;5034362;28;20151;-42
2024/01/25 01:19:30;;;;;;;18.60;4.97;;;8.00;99.90;;;;;;5037935;28;20045;-49
2024/01/25 01:21:57;;;;;;;20.80;5.03;;;8.00;99.90;;;;;;5035420;28;20120;-44
2024/01/25 01:24:27;;;;;;;22.08;5.13;;;8.00;99.90;;;;;;5038554;28;20033;-49
2024/01/25 01:26:54;;;;;;;23.90;5.18;;;8.00;99.90;;;;;;5030534;28;20095;-49
2024/01/25 01:29:20;;;;;;;26.10;5.90;;;8.10;99.90;;;;;;5033459;28;20037;-47
2024/01/25 01:31:47;;;;;;;24.75;5.32;;;8.00;99.90;;;;;;5035400;28;20649;-46
2024/01/25 01:34:14;;;;;;;21.83;5.55;;;8.00;99.90;;;;;;5031663;28;20091;-47
2024/01/25 01:36:42;;;;;;;20.48;5.68;;;8.00;99.90;;;;;;5036799;28;20049;-44
2024/01/25 01:39:09;;;;;;;22.30;5.32;;;8.00;99.90;;;;;;5033855;28;20068;-48
2024/01/25 01:41:36;;;;;;;18.50;5.47;;;8.00;99.90;;;;;;5031443;28;20156;-47
2024/01/25 01:44:03;;;;;;;24.08;5.47;;;8.00;99.90;;;;;;5034046;28;20518;-47
2024/01/25 01:46:34;;;;;;;18.40;5.70;;;8.00;99.90;;;;;;5031275;28;20393;-46
2024/01/25 01:49:03;;;;;;;21.60;5.53;;;8.00;99.90;;;;;;5031317;28;20045;-42
2024/01/25 01:51:34;;;;;;;21.58;5.00;;;8.00;99.90;;;;;;5030526;28;20073;-47
2024/01/25 01:54:03;;;;;;;19.63;4.78;;;8.00;99.90;;;;;;5030123;28;20053;-47
2024/01/25 01:56:30;;;;;;;25.52;5.25;;;7.90;99.90;;;;;;5031663;28;20104;-49
2024/01/25 01:59:00;;;;;;;21.80;4.70;;;7.90;99.90;;;;;;5036896;28;20077;-48
2024/01/25 02:01:28;;;;;;;24.52;5.30;;;7.90;99.90;;;;;;5034204;28;20053;-49
2024/01/25 02:03:56;;;;;;;23.58;5.20;;;7.90;99.90;;;;;;5028575;28;20045;-50
2024/01/25 02:06:24;;;;;;;23.80;5.13;;;7.90;99.90;;;;;;5030059;28;20446;-45
2024/01/25 02:08:58;;;;;;;22.33;5.18;;;7.90;99.90;;;;;;5030788;28;20056;-47
2024/01/25 02:11:25;;;;;;;27.95;6.43;;;7.90;99.90;;;;;;5030260;28;20052;-46
2024/01/25 02:13:52;;;;;;;19.75;4.85;;;7.80;99.90;;;;;;5030454;28;20140;-42
2024/01/25 02:16:20;;;;;;;21.60;5.47;;;7.80;99.90;;;;;;5031199;28;20402;-48
2024/01/25 02:18:47;;;;;;;23.95;5.10;;;7.80;99.90;;;;;;5029995;28;20049;-49
2024/01/25 02:21:15;;;;;;;24.13;5.70;;;7.70;99.90;;;;;;5033112;28;21136;-44
2024/01/25 02:23:42;;;;;;;25.67;5.18;;;7.70;99.90;;;;;;5028769;28;20052;-44
2024/01/25 02:26:09;;;;;;;22.02;5.80;;;7.70;99.90;;;;;;5028719;28;20131;-45
2024/01/25 02:28:36;;;;;;;19.95;5.05;;;7.60;99.90;;;;;;5029739;28;20033;-45
2024/01/25 02:31:04;;;;;;;21.65;6.75;;;7.60;99.90;;;;;;5033184;28;20056;-47
2024/01/25 02:33:31;;;;;;;21.10;6.00;;;7.70;99.90;;;;;;5030868;28;20076;-49
2024/01/25 02:35:58;;;;;;;27.15;5.68;;;7.70;99.90;;;;;;5028471;28;20046;-46
2024/01/25 02:38:25;;;;;;;22.67;4.95;;;7.70;99.90;;;;;;5028869;28;20053;-48
2024/01/25 02:40:53;;;;;;;26.58;5.68;;;7.70;99.90;;;;;;5033185;28;20076;-45
2024/01/25 02:43:22;;;;;;;19.92;4.80;;;7.70;99.90;;;;;;5025981;28;20077;-44
2024/01/25 02:45:49;;;;;;;21.45;5.22;;;7.70;99.90;;;;;;5026268;28;20072;-44
2024/01/25 02:48:17;;;;;;;26.90;6.38;;;7.70;99.90;;;;;;5028794;28;20071;-43
2024/01/25 02:50:45;;;;;;;19.90;5.82;;;7.70;99.90;;;;;;5030013;28;20054;-47
2024/01/25 02:53:12;;;;;;;29.15;6.18;;;7.70;99.90;;;;;;5032873;28;20038;-46
2024/01/25 02:55:38;;;;;;;22.27;4.90;;;7.70;99.90;;;;;;5034272;28;20051;-51
2024/01/25 02:58:05;;;;;;;22.02;5.22;;;7.70;99.90;;;;;;5029569;28;20109;-46
2024/01/25 03:00:32;;;;;;;23.23;5.57;;;7.70;99.90;;;;;;5026942;28;20042;-49
2024/01/25 03:02:59;;;;;;;19.67;5.35;;;7.70;99.90;;;;;;5029471;28;20140;-49
2024/01/25 03:05:26;;;;;;;22.88;4.97;;;7.70;99.90;;;;;;5027162;28;20042;-45
2024/01/25 03:07:53;;;;;;;25.05;5.70;;;7.70;99.90;;;;;;5027554;28;20049;-44
2024/01/25 03:10:20;;;;;;;19.30;5.57;;;7.60;99.90;;;;;;5030159;28;20223;-45
2024/01/25 03:12:48;;;;;;;18.05;5.22;;;7.60;99.90;;;;;;5027755;28;20132;-45
2024/01/25 03:15:15;;;;;;;18.55;4.95;;;7.50;99.90;;;;;;5027002;28;20153;-46
2024/01/25 03:17:42;;;;;;;20.23;5.32;;;7.60;99.90;;;;;;5032077;28;20049;-44
2024/01/25 03:20:09;;;;;;;22.10;5.13;;;7.60;99.90;;;;;;5033544;28;20057;-47
2024/01/25 03:22:37;;;;;;;23.77;5.43;;;7.70;99.90;;;;;;5035115;28;20077;-43
2024/01/25 03:25:04;;;;;;;24.20;5.43;;;7.70;99.90;;;;;;5028023;28;20060;-46
2024/01/25 03:27:31;;;;;;;24.25;5.72;;;7.60;99.90;;;;;;5029180;28;20049;-48
2024/01/25 03:29:58;;;;;;;24.65;5.30;;;7.70;99.90;;;;;;5028314;28;20149;-48
2024/01/25 03:32:25;;;;;;;18.98;5.22;;;7.70;99.90;;;;;;5027731;28;20048;-47
2024/01/25 03:34:53;;;;;;;19.60;4.95;;;7.70;99.90;;;;;;5026607;28;20089;-51
2024/01/25 03:37:20;;;;;;;15.15;5.13;;;7.70;99.90;;;;;;5030086;28;20139;-50
2024/01/25 03:39:47;;;;;;;16.88;5.07;;;7.70;99.90;;;;;;5028073;28;20601;-44
2024/01/25 03:42:14;;;;;;;27.23;6.35;;;7.70;99.90;;;;;;5025018;28;20487;-49
2024/01/25 03:44:42;;;;;;;24.08;5.10;;;7.70;99.90;;;;;;5033235;28;20033;-48
2024/01/25 03:47:09;;;;;;;16.02;4.90;;;7.60;99.90;;;;;;5034012;28;20053;-46
2024/01/25 03:49:36;;;;;;;20.33;5.63;;;7.60;99.90;;;;;;5029292;28;20041;-49
2024/01/25 03:52:05;;;;;;;19.42;5.38;;;7.60;99.90;;;;;;5027863;28;20045;-46
2024/01/25 03:54:32;;;;;;;20.45;5.63;;;7.70;99.90;;;;;;5026288;28;20053;-50
2024/01/25 03:56:59;;;;;;;18.05;5.78;;;7.70;99.90;;;;;;5025906;28;20529;-44
2024/01/25 03:59:26;;;;;;;21.98;5.18;;;7.70;99.90;;;;;;5026927;28;20041;-45
2024/01/25 04:01:53;;;;;;;23.15;5.45;;;7.70;99.90;;;;;;5026228;28;20142;-50
2024/01/25 04:04:20;;;;;;;19.27;5.82;;;7.70;99.90;;;;;;5025479;28;20518;-46
2024/01/25 04:06:47;;;;;;;19.83;5.35;;;7.70;99.90;;;;;;5027447;28;20048;-49
2024/01/25 04:09:17;;;;;;;21.77;5.60;;;7.60;99.90;;;;;;5028850;28;20485;-46
2024/01/25 04:11:44;;;;;;;25.60;6.20;;;7.60;99.90;;;;;;5028507;28;20430;-48
2024/01/25 04:14:11;;;;;;;25.40;5.50;;;7.60;99.90;;;;;;5029809;28;20115;-50
2024/01/25 04:16:38;;;;;;;14.05;4.68;;;7.60;99.90;;;;;;5031227;28;20065;-44
2024/01/25 04:19:05;;;;;;;27.83;5.72;;;7.60;99.90;;;;;;5035491;28;20053;-49
2024/01/25 04:21:32;;;;;;;17.90;4.78;;;7.60;99.90;;;;;;5039427;28;20146;-46
2024/01/25 04:23:59;;;;;;;18.88;5.40;;;7.60;99.90;;;;;;5041006;28;20046;-47
2024/01/25 04:26:26;;;;;;;23.58;6.32;;;7.60;99.90;;;;;;5039281;28;20080;-50
2024/01/25 04:28:53;;;;;;;23.95;6.00;;;7.60;99.90;;;;;;5038097;28;20076;-50
2024/01/25 04:31:20;;;;;;;19.23;5.10;;;7.60;99.90;;;;;;5035816;28;20206;-49
2024/01/25 04:33:47;;;;;;;20.48;5.18;;;7.60;99.90;;;;;;5034630;28;20072;-46
2024/01/25 04:36:15;;;;;;;23.17;5.85;;;7.60;99.90;;;;;;5039492;28;20061;-47
2024/01/25 04:38:42;;;;;;;24.13;5.72;;;7.60;99.90;;;;;;5033033;28;20065;-45
2024/01/25 04:41:11;;;;;;;15.63;5.78;;;7.60;99.90;;;;;;5038831;28;20141;-49
2024/01/25 04:43:38;;;;;;;17.17;5.60;;;7.60;99.90;;;;;;5032835;28;20077;-50
2024/01/25 04:46:04;;;;;;;20.52;5.40;;;7.60;99.90;;;;;;5035266;28;20157;-45
2024/01/25 04:48:32;;;;;;;18.85;5.40;;;7.60;99.90;;;;;;5031282;28;20045;-48
2024/01/25 04:50:59;;;;;;;29.05;6.60;;;7.60;99.90;;;;;;5029740;28;20045;-53
2024/01/25 04:53:27;;;;;;;24.05;6.15;;;7.50;99.90;;;;;;5029504;28;20469;-45
2024/01/25 04:55:55;;;;;;;21.33;5.82;;;7.50;99.90;;;;;;5030595;28;20560;-45
2024/01/25 04:58:22;;;;;;;26.58;6.20;;;7.50;99.90;;;;;;5035889;28;20140;-46
2024/01/25 05:00:52;;;;;;;23.70;5.50;;;7.50;99.90;;;;;;5031171;28;20110;-46
2024/01/25 05:03:20;;;;;;;26.13;6.10;;;7.50;99.90;;;;;;5032662;28;20045;-45
2024/01/25 05:05:47;;;;;;;22.27;6.00;;;7.50;99.90;;;;;;5030518;28;20069;-45
2024/01/25 05:08:14;;;;;;;20.85;5.55;;;7.50;99.90;;;;;;5028400;28;20068;-48
2024/01/25 05:10:41;;;;;;;18.10;5.90;;;7.60;99.90;;;;;;5031554;28;20063;-48
2024/01/25 05:13:09;;;;;;;24.75;6.95;;;7.50;99.90;;;;;;5029951;28;20037;-48
2024/01/25 05:15:36;;;;;;;23.55;6.28;;;7.50;99.90;;;;;;5028768;28;20150;-49
2024/01/25 05:18:04;;;;;;;28.77;5.75;;;7.40;99.90;;;;;;5030531;28;20486;-44
2024/01/25 05:20:32;;;;;;;24.42;5.70;;;7.50;99.90;;;;;;5011481;28;20042;-44
2024/01/25 05:23:02;;;;;;;20.95;5.28;;;7.50;99.90;;;;;;5030720;28;20113;-47
2024/01/25 05:25:30;;;;;;;21.63;6.25;;;7.40;99.90;;;;;;5030544;28;20045;-46
2024/01/25 05:27:57;;;;;;;21.13;5.88;;;7.40;99.90;;;;;;5030441;28;20051;-53
2024/01/25 05:30:25;;;;;;;23.90;5.30;;;7.40;99.90;;;;;;5031126;28;20049;-42
2024/01/25 05:32:54;;;;;;;19.13;5.32;;;7.30;99.90;;;;;;5031184;28;20077;-48
2024/01/25 05:35:21;;;;;;;16.70;5.53;;;7.30;99.90;;;;;;5011591;28;20088;-53
2024/01/25 05:37:48;;;;;;;20.83;5.78;;;7.20;99.90;;;;;;5021875;28;20049;-49
2024/01/25 05:40:15;;;;;;;22.40;5.93;;;7.20;99.90;;;;;;5029332;28;20415;-50
2024/01/25 05:42:43;;;;;;;28.00;6.53;;;7.20;99.90;;;;;;5028225;28;20061;-46
2024/01/25 05:45:10;;;;;;;23.63;5.97;;;7.30;99.90;;;;;;5031198;28;20127;-51
2024/01/25 05:47:37;;;;;;;26.45;5.90;;;7.30;99.90;;;;;;5040850;28;20067;-47
2024/01/25 05:50:05;;;;;;;23.55;5.10;;;7.30;99.90;;;;;;5032628;28;20569;-48
2024/01/25 05:52:33;;;;;;;23.70;5.32;;;7.30;99.90;;;;;;5035061;28;20121;-44
2024/01/25 05:55:00;;;;;;;21.65;6.78;;;7.30;99.90;;;;;;5035126;28;20218;-46
2024/01/25 05:57:32;;;;;;;17.00;5.80;;;7.30;99.90;;;;;;5030514;28;20044;-44
2024/01/25 05:59:59;;;;;;;28.60;6.07;;;7.30;99.90;;;;;;5033351;28;20103;-47
2024/01/25 06:02:27;;;;;;;19.65;5.32;;;7.30;99.90;;;;;;5036113;28;20611;-48
2024/01/25 06:04:54;;;;;;;20.05;5.05;;;7.30;99.90;;;;;;5035033;28;20041;-50
2024/01/25 06:07:22;;;;;;;19.88;5.15;;;7.40;99.90;;;;;;5040093;28;20072;-49
2024/01/25 06:09:49;;;;;;;33.42;5.88;;;7.20;99.90;;;;;;5031616;28;20114;-48
2024/01/25 06:12:16;;;;;;;21.15;6.25;;;7.10;99.90;;;;;;5033014;28;20095;-49
2024/01/25 06:14:43;;;;;;;27.85;6.50;;;7.10;99.90;;;;;;5032813;28;20061;-47
2024/01/25 06:17:10;;;;;;;23.67;5.50;;;7.00;99.90;;;;;;5034950;28;20087;-52
2024/01/25 06:19:37;;;;;;;23.45;5.68;;;7.10;99.90;;;;;;5034186;28;20065;-43
2024/01/25 06:22:04;;;;;;;24.85;5.25;;;7.10;99.90;;;;;;5037764;28;20048;-47
2024/01/25 06:24:31;;;;;;;21.15;5.57;;;7.00;99.90;;;;;;5037016;28;20098;-47
2024/01/25 06:26:58;;;;;;;33.97;5.93;;;7.00;99.90;;;;;;5033032;28;20045;-52
2024/01/25 06:29:25;;;;;;;26.02;5.80;;;6.90;99.90;;;;;;5032174;28;20083;-45
2024/01/25 06:31:52;;;;;;;24.60;6.13;;;6.90;99.90;;;;;;5034969;28;20162;-46
2024/01/25 06:34:19;;;;;;;31.25;6.30;;;6.90;99.90;;;;;;5035816;28;20057;-46
2024/01/25 06:36:46;;;;;;;32.35;6.70;;;6.80;99.90;;;;;;5034369;28;20047;-46
2024/01/25 06:39:14;;;;;;;24.80;5.50;;;6.70;99.90;;;;;;5035012;28;20534;-48
2024/01/25 06:41:41;;;;;;;26.60;5.70;;;6.60;99.90;;;;;;5033306;28;20511;-48
2024/01/25 06:44:08;;;;;;;23.88;5.60;;;6.60;99.90;;;;;;5033025;28;20072;-44
2024/01/25 06:46:35;;;;;;;24.33;5.38;;;6.50;99.90;;;;;;5033315;28;20124;-45
2024/01/25 06:49:02;;;;;;;30.27;6.25;;;6.40;99.90;;;;;;5038322;28;20037;-43
2024/01/25 06:51:30;;;;;;;22.35;6.07;;;6.40;99.90;;;;;;5029640;28;20047;-48
2024/01/25 06:53:57;;;;;;;26.23;5.63;;;6.40;99.90;;;;;;5030778;28;20045;-43
2024/01/25 06:56:24;;;;;;;24.48;6.30;;;6.40;99.90;;;;;;5030602;28;20045;-46
2024/01/25 06:58:51;;;;;;;24.33;5.72;;;6.40;99.90;;;;;;5035862;28;20056;-48
2024/01/25 07:01:23;;;;;;;24.38;6.45;;;6.30;99.90;;;;;;5038526;28;20478;-46
2024/01/25 07:03:50;;;;;;;26.30;6.40;;;6.30;99.90;;;;;;5034067;28;20129;-46
2024/01/25 07:06:19;;;;;;;22.23;5.45;;;6.30;99.90;;;;;;5030117;28;20056;-44
2024/01/25 07:08:46;;;;;;;21.60;5.85;;;6.30;99.90;;;;;;5030199;28;20049;-50
2024/01/25 07:11:13;;;;;;;26.33;6.95;;;6.20;99.90;;;;;;5030346;28;20037;-51
2024/01/25 07:13:43;;;;;;;22.52;5.97;;;6.30;99.90;;;;;;5029480;28;20049;-50
2024/01/25 07:16:10;;;;;;;27.25;5.63;;;6.30;99.90;;;;;;5033349;28;20103;-53
2024/01/25 07:18:37;;;;;;;31.27;6.45;;;6.30;99.90;;;;;;5033748;28;20821;-49
2024/01/25 07:21:04;;;;;;;38.67;7.32;;;6.30;99.90;;;;;;5030448;28;20049;-46
2024/01/25 07:23:33;;;;;;;23.85;5.57;;;6.20;99.90;;;;;;5030579;28;20041;-47
2024/01/25 07:26:00;;;;;;;29.88;6.68;;;6.20;99.90;;;;;;5029955;28;20139;-49
2024/01/25 07:28:27;;;;;;;26.60;5.60;;;6.20;99.90;;;;;;5030330;28;20073;-47
2024/01/25 07:30:54;;;;;;;28.10;5.72;;;6.20;99.90;;;;;;5028368;28;20116;-43
2024/01/25 07:33:21;;;;;;;33.83;7.53;;;6.10;99.90;;;;;;5026138;28;20048;-48
2024/01/25 07:35:48;;;;;;;28.05;6.60;;;6.20;99.90;;;;;;5027794;28;20060;-43
2024/01/25 07:38:16;;;;;;;24.20;6.30;;;6.20;99.90;;;;;;5031517;28;20072;-45
2024/01/25 07:40:44;;;;;;;30.25;6.00;;;6.20;99.90;;;;;;5020208;28;20049;-44
2024/01/25 07:43:11;;;;;;;28.50;7.13;;;6.30;99.90;;;;;;5023749;28;20562;-52
2024/01/25 07:45:39;;;;;;;26.38;6.55;;;6.30;99.90;;;;;;5029073;28;20063;-48
2024/01/25 07:48:07;;;;;;;25.35;6.20;;;6.30;99.90;;;;;;5026257;28;20562;-53
2024/01/25 07:50:41;;;;;;;29.25;5.72;;;6.40;99.90;;;;;;5029673;28;20106;-42
2024/01/25 07:53:08;;;;;;;25.98;6.10;;;6.30;99.90;;;;;;5026652;28;20368;-44
2024/01/25 07:55:35;;;;;;;27.92;5.68;;;6.40;99.90;;;;;;5029597;28;20193;-50
2024/01/25 07:58:02;;;;;;;27.70;6.40;;;6.40;99.90;;;;;;5032556;28;20048;-51
2024/01/25 08:00:30;;;;;;;22.70;6.05;;;6.50;99.90;;;;;;5032532;28;20058;-44
2024/01/25 08:02:57;;;;;;;34.00;6.10;;;6.50;99.90;;;;;;5029022;28;20268;-46
2024/01/25 08:05:25;;;;;;;27.20;6.18;;;6.50;99.90;;;;;;5032242;28;20532;-42
2024/01/25 08:08:06;;;;;;;;;;;6.60;99.90;;;;;;5032883;28;20445;-43
2024/01/25 08:10:35;;;;;;;25.45;6.40;;;6.70;99.90;;;;;;5023290;28;19925;-48
2024/01/25 08:13:02;;;;;;;26.17;5.88;;;6.70;99.90;;;;;;5034687;28;20502;-50
2024/01/25 08:15:34;;;;;;;27.90;7.25;;;6.70;99.90;;;;;;5037399;28;20052;-47
2024/01/25 08:18:01;;;;;;;25.38;6.15;;;6.60;99.90;;;;;;5041936;28;20049;-50
2024/01/25 08:20:28;;;;;;;28.58;5.97;;;6.70;99.90;;;;;;5037486;28;20068;-44
2024/01/25 08:22:56;;;;;;;27.67;6.13;;;6.60;99.90;;;;;;5027750;28;20482;-48
2024/01/25 08:25:23;;;;;;;27.77;5.70;;;6.70;99.90;;;;;;5028464;28;20422;-44
2024/01/25 08:27:51;;;;;;;26.25;5.50;;;6.70;99.90;;;;;;5027596;28;20048;-45
2024/01/25 08:30:18;;;;;;;32.70;6.05;;;6.70;99.90;;;;;;5028969;28;20506;-51
2024/01/25 08:32:45;;;;;;;22.65;5.22;;;6.70;99.90;;;;;;5028221;28;20656;-47
2024/01/25 08:35:12;;;;;;;24.50;6.10;;;6.70;99.90;;;;;;5030963;28;20046;-46
2024/01/25 08:37:39;;;;;;;19.58;5.57;;;6.80;99.90;;;;;;5024704;28;20062;-41
2024/01/25 08:40:09;;;;;;;22.65;5.15;;;6.80;99.90;;;;;;5026022;28;20045;-45
2024/01/25 08:42:36;;;;;;;29.42;6.30;;;6.80;99.90;;;;;;5028179;28;20052;-47
2024/01/25 08:45:22;;;;;;;27.30;5.22;;;6.90;99.90;;;;;;5029758;28;20079;-45
2024/01/25 08:48:08;;;;;;;17.38;5.95;;;7.00;99.90;;;;;;5022947;28;20057;-43
2024/01/25 08:50:36;;;;;;;27.77;5.63;;;7.00;99.90;;;;;;5026763;28;20041;-45
2024/01/25 08:53:03;;;;;;;22.27;5.43;;;7.00;99.90;;;;;;5029815;28;20054;-48
2024/01/25 08:55:32;;;;;;;31.40;6.60;;;7.10;99.90;;;;;;5032606;28;20137;-43
2024/01/25 08:57:59;;;;;;;30.25;6.63;;;7.10;99.90;;;;;;5027186;28;20106;-46
2024/01/25 09:00:26;;;;;;;21.20;5.63;;;7.10;99.90;;;;;;5026408;28;20687;-42
2024/01/25 09:02:53;;;;;;;21.95;5.60;;;7.20;99.90;;;;;;5030956;28;20547;-50
2024/01/25 09:05:20;;;;;;;22.85;6.63;;;7.30;99.90;;;;;;5033807;28;20167;-46
2024/01/25 09:07:47;;;;;;;22.10;5.78;;;7.30;99.90;;;;;;5030489;28;20204;-47
2024/01/25 09:10:15;;;;;;;22.73;5.95;;;7.40;99.90;;;;;;5031960;28;20048;-51
2024/01/25 09:12:42;;;;;;;30.88;6.28;;;7.40;99.90;;;;;;5031890;28;20056;-46
2024/01/25 09:15:09;;;;;;;37.28;7.78;;;7.50;99.90;;;;;;5034408;28;20124;-45
2024/01/25 09:17:36;;;;;;;26.92;5.55;;;7.50;99.90;;;;;;5034113;28;20065;-47
2024/01/25 09:20:04;;;;;;;24.20;6.28;;;7.60;99.90;;;;;;5031393;28;20053;-51
2024/01/25 09:22:31;;;;;;;21.88;5.57;;;7.80;99.90;;;;;;5029464;28;20045;-49
2024/01/25 09:24:58;;;;;;;28.20;5.95;;;7.80;99.90;;;;;;5030641;28;20046;-50
2024/01/25 09:27:26;;;;;;;22.08;5.90;;;7.90;99.90;;;;;;5030852;28;20152;-52
2024/01/25 09:29:53;;;;;;;24.25;6.20;;;7.90;99.90;;;;;;5032196;28;20413;-46
2024/01/25 09:32:20;;;;;;;24.30;6.50;;;8.00;99.90;;;;;;5038502;28;20059;-52
2024/01/25 09:34:47;;;;;;;24.80;6.72;;;8.10;99.90;;;;;;5039431;28;20076;-43
2024/01/25 09:37:14;;;;;;;28.33;6.82;;;8.20;99.90;;;;;;5038639;28;20447;-48
2024/01/25 09:39:42;;;;;;;31.88;6.32;;;8.30;99.90;;;;;;5034577;28;20073;-48
2024/01/25 09:42:10;;;;;;;39.53;7.60;;;8.40;99.90;;;;;;5033858;28;20046;-44
2024/01/25 09:44:38;;;;;;;23.33;6.65;;;8.40;99.90;;;;;;5032378;28;20277;-45
2024/01/25 09:47:08;;;;;;;25.23;6.82;;;8.40;99.90;;;;;;5030816;28;20065;-45
2024/01/25 09:49:37;;;;;;;29.70;6.65;;;8.40;99.90;;;;;;5032115;28;20042;-53
2024/01/25 09:52:05;;;;;;;19.73;6.25;;;8.50;99.90;;;;;;5036715;28;20041;-50
2024/01/25 09:54:35;;;;;;;26.85;5.78;;;8.50;99.90;;;;;;5038758;28;20540;-47
2024/01/25 09:57:16;;;;;;;23.10;6.30;;;8.50;99.90;;;;;;5030681;28;20064;-48
2024/01/25 09:59:44;;;;;;;24.27;7.07;;;8.40;99.90;;;;;;5030730;28;20103;-47
2024/01/25 10:02:11;;;;;;;22.20;6.43;;;8.50;99.90;;;;;;5030793;28;20511;-49
2024/01/25 10:04:39;;;;;;;24.98;5.78;;;8.50;99.90;;;;;;5033119;28;20165;-49
2024/01/25 10:07:06;;;;;;;29.48;6.72;;;8.50;99.90;;;;;;5032092;28;20551;-50
2024/01/25 10:09:42;;;;;;;26.63;6.13;;;8.60;99.90;;;;;;5029379;28;20121;-48
2024/01/25 10:12:09;;;;;;;19.58;5.97;;;8.50;99.90;;;;;;5028210;28;20048;-45
2024/01/25 10:14:45;;;;;;;26.00;6.63;;;8.80;99.90;;;;;;5017917;28;20046;-48
2024/01/25 10:17:12;;;;;;;21.05;4.95;;;8.70;99.90;;;;;;5032115;28;20044;-45
2024/01/25 10:19:43;;;;;;;24.42;6.13;;;8.80;99.90;;;;;;5022836;28;20052;-44
2024/01/25 10:22:12;;;;;;;26.45;6.82;;;8.90;99.90;;;;;;5030799;28;20077;-44
2024/01/25 10:24:41;;;;;;;23.58;5.82;;;8.90;99.90;;;;;;5029993;28;20064;-53
2024/01/25 10:27:10;;;;;;;19.52;5.75;;;8.90;99.90;;;;;;5031665;28;20124;-52
2024/01/25 10:29:37;;;;;;;26.55;5.80;;;9.00;99.90;;;;;;5029470;28;20041;-48
2024/01/25 10:32:06;;;;;;;16.83;5.90;;;8.90;99.90;;;;;;5032545;28;20049;-48
2024/01/25 10:34:36;;;;;;;24.58;7.07;;;9.10;99.90;;;;;;5032154;28;20057;-50
2024/01/25 10:37:05;;;;;;;25.17;6.05;;;9.30;99.90;;;;;;5032839;28;20160;-45
2024/01/25 10:39:33;;;;;;;20.02;6.45;;;9.60;99.90;;;;;;5038548;28;20049;-43
2024/01/25 10:42:01;;;;;;;22.42;5.88;;;9.40;99.90;;;;;;5037706;28;20077;-47
2024/01/25 10:44:28;;;;;;;22.35;5.93;;;9.40;99.90;;;;;;5030086;28;20420;-44
2024/01/25 10:46:56;;;;;;;21.25;5.80;;;9.30;99.90;;;;;;5027498;28;20039;-44
2024/01/25 10:49:24;;;;;;;19.65;5.88;;;9.40;99.90;;;;;;5028457;28;20049;-52
2024/01/25 10:51:53;;;;;;;22.80;5.75;;;9.50;99.90;;;;;;5032746;28;20550;-46
2024/01/25 10:54:20;;;;;;;23.60;5.63;;;9.60;99.90;;;;;;5025461;28;20056;-44
2024/01/25 10:56:47;;;;;;;17.40;5.40;;;9.80;99.90;;;;;;5027598;28;20053;-43
2024/01/25 10:59:16;;;;;;;18.52;5.20;;;9.80;99.90;;;;;;5030762;28;20586;-46
2024/01/25 11:01:45;;;;;;;21.50;6.10;;;9.80;99.90;;;;;;5031266;28;20049;-48
2024/01/25 11:04:19;;;;;;;21.83;5.40;;;9.90;99.90;;;;;;5028014;28;20063;-43
2024/01/25 11:06:47;;;;;;;18.35;6.18;;;10.30;99.90;;;;;;5031466;28;20100;-41
2024/01/25 11:09:19;;;;;;;18.63;5.85;;;10.30;99.90;;;;;;5029979;28;20037;-44
2024/01/25 11:11:53;;;;;;;14.88;5.80;;;10.60;99.90;;;;;;5027679;28;20054;-49
2024/01/25 11:14:20;;;;;;;24.40;6.55;;;10.50;99.90;;;;;;5027397;28;20049;-44
2024/01/25 11:16:47;;;;;;;22.70;7.53;;;10.40;99.90;;;;;;5028920;28;20436;-42
2024/01/25 11:19:21;;;;;;;20.50;5.93;;;10.10;99.90;;;;;;5028570;28;20489;-49
2024/01/25 11:21:53;;;;;;;18.77;6.03;;;10.30;99.90;;;;;;5027222;28;20056;-52
2024/01/25 11:24:22;;;;;;;22.63;5.93;;;10.30;99.90;;;;;;5029156;28;20467;-45
2024/01/25 11:26:49;;;;;;;27.40;6.93;;;10.00;99.90;;;;;;5031054;28;20088;-43
2024/01/25 11:29:18;;;;;;;16.95;5.50;;;10.30;99.90;;;;;;5031469;28;20054;-47
2024/01/25 11:31:47;;;;;;;20.60;5.93;;;10.40;99.90;;;;;;5028364;28;20041;-50
2024/01/25 11:34:18;;;;;;;28.08;6.40;;;10.10;99.90;;;;;;5031786;28;20045;-46
2024/01/25 11:36:45;;;;;;;17.97;5.97;;;10.20;99.90;;;;;;5028139;28;20073;-48
2024/01/25 11:39:15;;;;;;;18.48;6.35;;;10.30;99.90;;;;;;5027791;28;20073;-50
2024/01/25 11:41:43;;;;;;;17.00;5.85;;;10.20;99.90;;;;;;5034989;28;20076;-47
2024/01/25 11:44:13;;;;;;;23.38;6.55;;;10.40;99.90;;;;;;5034637;28;20046;-48
2024/01/25 11:46:41;;;;;;;22.73;6.20;;;10.40;99.90;;;;;;5035096;28;20057;-50
2024/01/25 11:49:08;;;;;;;17.38;5.78;;;10.50;99.90;;;;;;5030147;28;20044;-46
2024/01/25 11:51:35;;;;;;;20.58;6.68;;;10.60;99.90;;;;;;5029763;28;20048;-48
2024/01/25 11:54:06;;;;;;;24.15;7.68;;;10.50;99.90;;;;;;5030014;28;20144;-47
2024/01/25 11:56:40;;;;;;;20.63;6.32;;;10.60;99.90;;;;;;5028256;28;20123;-49
2024/01/25 11:59:09;;;;;;;20.63;5.93;;;10.60;99.90;;;;;;5027560;28;20461;-49
2024/01/25 12:01:36;;;;;;;23.92;6.32;;;10.70;99.90;;;;;;5032799;28;20088;-48
2024/01/25 12:04:04;;;;;;;20.63;6.20;;;10.70;99.90;;;;;;5028228;28;20414;-44
2024/01/25 12:06:31;;;;;;;20.33;6.32;;;10.60;99.90;;;;;;5023566;28;20045;-47
2024/01/25 12:09:12;;;;;;;25.77;5.95;;;10.40;99.90;;;;;;5030207;28;20052;-50
2024/01/25 12:11:41;;;;;;;22.02;6.78;;;10.10;99.90;;;;;;5028577;28;20572;-46
2024/01/25 12:14:09;;;;;;;22.77;6.57;;;9.80;99.90;;;;;;5030782;28;20089;-50
2024/01/25 12:16:36;;;;;;;21.45;6.00;;;9.80;99.90;;;;;;5029449;28;20073;-45
2024/01/25 12:19:05;;;;;;;22.30;6.45;;;9.80;99.90;;;;;;5029621;28;20049;-45
2024/01/25 12:21:34;;;;;;;17.33;6.10;;;9.70;99.90;;;;;;5029509;28;20107;-48
2024/01/25 12:24:02;;;;;;;22.50;6.43;;;9.60;99.90;;;;;;5036844;28;20061;-46
2024/01/25 12:26:34;;;;;;;19.45;7.18;;;9.60;99.90;;;;;;5032074;28;20402;-49
2024/01/25 12:29:01;;;;;;;16.30;6.75;;;9.50;99.90;;;;;;5032760;28;20048;-47
2024/01/25 12:31:28;;;;;;;19.90;6.38;;;9.50;99.90;;;;;;5029360;28;20065;-44
2024/01/25 12:33:55;;;;;;;27.98;7.13;;;9.50;99.90;;;;;;5032868;28;20047;-51
2024/01/25 12:36:23;;;;;;;24.10;6.10;;;9.60;99.90;;;;;;5033715;28;20048;-48
2024/01/25 12:38:50;;;;;;;17.98;5.68;;;9.50;99.90;;;;;;5028955;28;20458;-44
2024/01/25 12:41:17;;;;;;;21.63;6.20;;;9.60;99.90;;;;;;5034409;28;20074;-49
2024/01/25 12:43:44;;;;;;;16.50;5.88;;;9.50;99.90;;;;;;5035045;28;20049;-50
2024/01/25 12:46:11;;;;;;;17.63;5.28;;;9.50;99.90;;;;;;5031580;28;20037;-47
2024/01/25 12:48:55;;;;;;;17.50;5.93;;;9.30;99.90;;;;;;5032356;28;20449;-45